OIZI  Iran Shahr  Airport

Iranshahr, Iran

Add Bookmark
ICAO OIZI
Type Airport
Status Operational
Latitude
27° 14' 9" N
27.236099
Longitude
60° 43' 12" E
60.720001
Local (GMT +3.5 ) UTC
Sep 30, 2016 03:12 pm Sep 30, 2016 11:42
Sunrise-Sunset Local UTC
Begin Civil Twilight 04:55 am 01:25
Sunrise 05:18 am 01:48
Sunset 05:15 pm 13:45
End Civil Twilight 05:38 pm 14:08
VFR
VFR
MVFR
MVFR
IFR
IFR
LIFR
LIFR
Unknown
Unavailable

Current Weather

METAR Observed VFR
OIZI 301100Z 25008KT 9999 FEW045 40/07 Q1005 Fri, Sep 30, 2016 @ 11:00 UTC
(42 Minutes ago)
Visual Flight Rules
Wind Visibility Clouds Conditions
250° at 8 knots (15 kph) 10 km or more
  • Few at 4,500 ft AGL
  • No significant weather
Temperatures Readings Precipitation
Current Temp
40°C
104°F
Dewpoint
7°C
45°F
Humidity 13%
Altimeter 29.68" Hg
Sea Level Pressure 1,005 mb
Field Elevation
591 m
1,939 ft
None Recorded
-
-

CheckWX.com is intended as a tool to help pilots better visualize weather data. It is not intended as a substitute for an official weather briefing obtained from a Flight Service Station. CheckWX.com does not meet the FAA requirements for an official pre-flight weather briefing. Therefore, it's important that pilots still call and obtain an official FSS pre-flight weather briefing.

© 2007-2016 CheckWX.com
11:42:27 UTC